createdAt,value
2019-02-23T00:00:12.621Z,1020.79
2019-02-23T00:01:21.806Z,1020.83
2019-02-23T00:02:33.018Z,1020.85
2019-02-23T00:03:44.233Z,1020.86
2019-02-23T00:04:55.449Z,1020.87
2019-02-23T00:06:06.650Z,1020.87
2019-02-23T00:07:17.855Z,1020.86
2019-02-23T00:08:29.071Z,1020.81
2019-02-23T00:09:40.279Z,1020.83
2019-02-23T00:10:51.622Z,1020.85
2019-02-23T00:12:04.570Z,1020.86
2019-02-23T00:13:13.617Z,1020.89
2019-02-23T00:14:24.821Z,1020.92
2019-02-23T00:15:36.038Z,1020.85
2019-02-23T00:16:47.255Z,1020.82
2019-02-23T00:17:58.456Z,1020.89
2019-02-23T00:19:09.665Z,1020.90
2019-02-23T00:20:20.865Z,1020.97
2019-02-23T00:21:32.070Z,1020.97
2019-02-23T00:22:43.274Z,1020.96
2019-02-23T00:23:54.474Z,1020.93
2019-02-23T00:25:05.674Z,1020.92
2019-02-23T00:26:17.895Z,1020.95
2019-02-23T00:27:29.103Z,1020.93
2019-02-23T00:28:39.807Z,1020.94
2019-02-23T00:29:51.011Z,1020.97
2019-02-23T00:31:02.218Z,1020.93
2019-02-23T00:32:12.920Z,1020.94
2019-02-23T00:33:23.632Z,1020.96
2019-02-23T00:34:34.827Z,1020.94
2019-02-23T00:35:46.030Z,1020.93
2019-02-23T00:36:57.244Z,1020.98
2019-02-23T00:38:08.434Z,1020.99
2019-02-23T00:39:19.652Z,1021.02
2019-02-23T00:40:30.857Z,1020.99
2019-02-23T00:41:42.059Z,1020.97
2019-02-23T00:42:53.255Z,1020.97
2019-02-23T00:44:04.460Z,1020.96
2019-02-23T00:45:15.659Z,1020.98
2019-02-23T00:46:26.880Z,1020.94
2019-02-23T00:47:38.087Z,1020.96
2019-02-23T00:48:49.296Z,1020.94
2019-02-23T00:50:00.504Z,1020.98
2019-02-23T00:51:11.706Z,1020.98
2019-02-23T00:52:22.416Z,1020.96
2019-02-23T00:53:33.614Z,1020.97
2019-02-23T00:54:44.374Z,1020.97
2019-02-23T00:55:55.642Z,1020.96
2019-02-23T00:57:06.359Z,1020.92
2019-02-23T00:58:17.620Z,1020.95
2019-02-23T00:59:28.844Z,1020.92
2019-02-23T01:00:40.043Z,1020.99
2019-02-23T01:01:51.241Z,1021.04
2019-02-23T01:03:02.433Z,1021.00
2019-02-23T01:04:13.632Z,1021.01
2019-02-23T01:05:24.822Z,1021.03
2019-02-23T01:06:36.520Z,1020.98
2019-02-23T01:07:47.223Z,1020.97
2019-02-23T01:08:58.435Z,1020.94
2019-02-23T01:10:10.624Z,1020.95
2019-02-23T01:11:21.826Z,1020.97
2019-02-23T01:12:33.026Z,1020.99
2019-02-23T01:13:43.726Z,1021.02
2019-02-23T01:14:54.917Z,1021.02
2019-02-23T01:16:06.122Z,1021.06
2019-02-23T01:17:16.826Z,1021.09
2019-02-23T01:18:28.016Z,1021.07
2019-02-23T01:19:47.788Z,1021.06
2019-02-23T01:20:51.412Z,1021.04
2019-02-23T01:22:02.686Z,1021.05
2019-02-23T01:23:13.824Z,1021.02
2019-02-23T01:24:24.515Z,1021.05
2019-02-23T01:25:35.211Z,1021.03
2019-02-23T01:26:46.418Z,1021.00
2019-02-23T01:27:57.629Z,1021.02
2019-02-23T01:29:08.332Z,1021.03
2019-02-23T01:30:19.612Z,1021.03
2019-02-23T01:31:30.808Z,1021.02
2019-02-23T01:32:41.507Z,1021.04
2019-02-23T01:33:52.711Z,1021.02
2019-02-23T01:35:03.404Z,1021.02
2019-02-23T01:36:14.106Z,1020.99
2019-02-23T01:37:25.626Z,1021.00
2019-02-23T01:38:36.820Z,1021.04
2019-02-23T01:39:48.018Z,1021.03
2019-02-23T01:40:59.221Z,1021.01
2019-02-23T01:42:10.405Z,1021.01
2019-02-23T01:43:21.620Z,1021.06
2019-02-23T01:44:32.821Z,1021.04
2019-02-23T01:45:44.019Z,1021.03
2019-02-23T01:46:55.210Z,1021.05
2019-02-23T01:48:06.411Z,1021.05
2019-02-23T01:49:17.621Z,1021.07
2019-02-23T01:50:28.812Z,1021.11
2019-02-23T01:51:40.016Z,1021.15
2019-02-23T01:52:50.720Z,1021.14
2019-02-23T01:54:01.927Z,1021.14
2019-02-23T01:55:13.127Z,1021.13
2019-02-23T01:56:23.820Z,1021.13
2019-02-23T01:57:35.023Z,1021.11
2019-02-23T01:58:47.224Z,1021.10
2019-02-23T01:59:58.424Z,1021.18
2019-02-23T02:01:09.623Z,1021.19
2019-02-23T02:02:20.814Z,1021.18
2019-02-23T02:03:32.018Z,1021.19
2019-02-23T02:04:44.210Z,1021.07
2019-02-23T02:05:55.401Z,1021.10
2019-02-23T02:07:06.590Z,1021.07
2019-02-23T02:08:17.802Z,1021.10
2019-02-23T02:09:28.994Z,1021.05
2019-02-23T02:10:40.196Z,1021.06
2019-02-23T02:11:50.896Z,1021.13
2019-02-23T02:13:02.091Z,1021.09
2019-02-23T02:14:13.297Z,1021.09
2019-02-23T02:15:24.637Z,1021.10
2019-02-23T02:16:35.830Z,1021.06
2019-02-23T02:17:46.522Z,1021.08
2019-02-23T02:18:57.227Z,1021.14
2019-02-23T02:20:11.413Z,1021.11
2019-02-23T02:21:19.116Z,1021.09
2019-02-23T02:22:31.309Z,1021.10
2019-02-23T02:23:42.036Z,1021.12
2019-02-23T02:24:53.231Z,1021.12
2019-02-23T02:26:04.432Z,1021.17
2019-02-23T02:27:15.644Z,1021.15
2019-02-23T02:28:26.835Z,1021.15
2019-02-23T02:29:38.040Z,1021.19
2019-02-23T02:30:49.241Z,1021.19
2019-02-23T02:32:00.442Z,1021.17
2019-02-23T02:33:11.647Z,1021.17
2019-02-23T02:34:22.355Z,1021.12
2019-02-23T02:35:33.568Z,1021.10
2019-02-23T02:36:44.295Z,1021.07
2019-02-23T02:37:55.620Z,1021.09
2019-02-23T02:39:06.817Z,1021.05
2019-02-23T02:40:18.008Z,1021.06
2019-02-23T02:41:29.214Z,1021.07
2019-02-23T02:42:40.413Z,1021.08
2019-02-23T02:43:51.108Z,1021.03
2019-02-23T02:45:02.314Z,1021.03
2019-02-23T02:46:13.624Z,1021.03
2019-02-23T02:47:24.319Z,1021.07
2019-02-23T02:48:36.515Z,1021.06
2019-02-23T02:49:47.718Z,1021.06
2019-02-23T02:50:59.408Z,1021.04
2019-02-23T02:52:10.595Z,1021.02
2019-02-23T02:53:21.378Z,1021.05
2019-02-23T02:54:31.996Z,1021.07
2019-02-23T02:55:43.181Z,1021.05
2019-02-23T02:56:54.368Z,1021.04
2019-02-23T02:58:05.621Z,1021.00
2019-02-23T02:59:16.799Z,1021.03
2019-02-23T03:00:27.989Z,1021.06
2019-02-23T03:01:38.686Z,1021.05
2019-02-23T03:02:49.394Z,1021.09
2019-02-23T03:04:00.587Z,1021.03
2019-02-23T03:05:11.786Z,1020.96
2019-02-23T03:06:22.489Z,1020.95
2019-02-23T03:07:33.184Z,1020.88
2019-02-23T03:08:44.374Z,1020.84
2019-02-23T03:09:56.070Z,1020.83
2019-02-23T03:11:07.263Z,1020.82
2019-02-23T03:12:18.449Z,1020.81
2019-02-23T03:13:29.643Z,1020.77
2019-02-23T03:14:40.328Z,1020.84
2019-02-23T03:15:51.629Z,1020.80
2019-02-23T03:17:02.802Z,1020.85
2019-02-23T03:18:13.985Z,1020.86
2019-02-23T03:19:25.185Z,1020.88
2019-02-23T03:20:37.026Z,1020.89
2019-02-23T03:21:47.053Z,1020.85
2019-02-23T03:22:58.228Z,1020.78
2019-02-23T03:24:09.409Z,1020.78
2019-02-23T03:25:20.588Z,1020.74
2019-02-23T03:26:31.775Z,1020.73
2019-02-23T03:27:42.959Z,1020.83
2019-02-23T03:28:55.129Z,1020.79
2019-02-23T03:30:06.303Z,1020.76
2019-02-23T03:31:17.638Z,1020.78
2019-02-23T03:32:28.802Z,1020.75
2019-02-23T03:33:40.001Z,1020.71
2019-02-23T03:34:51.138Z,1020.68
2019-02-23T03:36:02.310Z,1020.55
2019-02-23T03:37:13.636Z,1020.61
2019-02-23T03:38:24.813Z,1020.62
2019-02-23T03:39:35.991Z,1020.64
2019-02-23T03:40:47.182Z,1020.60
2019-02-23T03:41:58.344Z,1020.57
2019-02-23T03:43:09.612Z,1020.49
2019-02-23T03:44:20.292Z,1020.49
2019-02-23T03:45:31.613Z,1020.42
2019-02-23T03:46:42.798Z,1020.43
2019-02-23T03:47:53.973Z,1020.44
2019-02-23T03:49:05.170Z,1020.47
2019-02-23T03:50:15.844Z,1020.51
2019-02-23T03:51:27.016Z,1020.53
2019-02-23T03:52:37.685Z,1020.56
2019-02-23T03:53:48.871Z,1020.56
2019-02-23T03:55:00.054Z,1020.64
2019-02-23T03:56:11.228Z,1020.64
2019-02-23T03:57:22.403Z,1020.66
2019-02-23T03:58:33.623Z,1020.70
2019-02-23T03:59:44.778Z,1020.70
2019-02-23T04:00:55.615Z,1020.63
2019-02-23T04:02:06.794Z,1020.67
2019-02-23T04:03:17.965Z,1020.67
2019-02-23T04:04:29.134Z,1020.66
2019-02-23T04:05:40.298Z,1020.64
2019-02-23T04:06:51.632Z,1020.70
2019-02-23T04:08:02.811Z,1020.67
2019-02-23T04:09:13.985Z,1020.69
2019-02-23T04:10:25.167Z,1020.68
2019-02-23T04:11:36.354Z,1020.69
2019-02-23T04:12:47.620Z,1020.72
2019-02-23T04:13:58.791Z,1020.69
2019-02-23T04:15:09.965Z,1020.66
2019-02-23T04:16:21.132Z,1020.64
2019-02-23T04:17:32.304Z,1020.65
2019-02-23T04:18:42.974Z,1020.61
2019-02-23T04:19:53.649Z,1020.58
2019-02-23T04:21:04.810Z,1020.61
2019-02-23T04:22:15.977Z,1020.60
2019-02-23T04:23:27.139Z,1020.57
2019-02-23T04:24:38.299Z,1020.59
2019-02-23T04:25:49.613Z,1020.54
2019-02-23T04:27:00.786Z,1020.56
2019-02-23T04:28:11.614Z,1020.58
2019-02-23T04:29:22.277Z,1020.63
2019-02-23T04:30:33.045Z,1020.57
2019-02-23T04:31:44.115Z,1020.52
2019-02-23T04:32:55.297Z,1020.54
2019-02-23T04:34:06.466Z,1020.58
2019-02-23T04:35:17.121Z,1020.60
2019-02-23T04:36:27.790Z,1020.68
2019-02-23T04:37:39.959Z,1020.70
2019-02-23T04:38:50.632Z,1020.70
2019-02-23T04:40:01.815Z,1020.69
2019-02-23T04:41:12.966Z,1020.69
2019-02-23T04:42:24.137Z,1020.69
2019-02-23T04:43:35.311Z,1020.70
2019-02-23T04:44:46.472Z,1020.70
2019-02-23T04:45:57.642Z,1020.67
2019-02-23T04:47:08.831Z,1020.61
2019-02-23T04:48:19.999Z,1020.59
2019-02-23T04:49:30.663Z,1020.61
2019-02-23T04:50:41.819Z,1020.55
2019-02-23T04:51:53.488Z,1020.54
2019-02-23T04:53:04.175Z,1020.51
2019-02-23T04:54:14.843Z,1020.52
2019-02-23T04:55:25.995Z,1020.55
2019-02-23T04:56:37.156Z,1020.55
2019-02-23T04:57:47.824Z,1020.54
2019-02-23T04:58:58.985Z,1020.57
2019-02-23T05:00:10.152Z,1020.68
2019-02-23T05:01:21.308Z,1020.71
2019-02-23T05:02:31.980Z,1020.73
2019-02-23T05:03:43.140Z,1020.73
2019-02-23T05:04:54.303Z,1020.71
2019-02-23T05:06:04.967Z,1020.70
2019-02-23T05:07:16.126Z,1020.67
2019-02-23T05:08:27.294Z,1020.65
2019-02-23T05:09:38.460Z,1020.66
2019-02-23T05:10:49.633Z,1020.71
2019-02-23T05:12:00.777Z,1020.66
2019-02-23T05:13:11.933Z,1020.68
2019-02-23T05:14:23.083Z,1020.72
2019-02-23T05:15:34.237Z,1020.73
2019-02-23T05:16:45.397Z,1020.73
2019-02-23T05:17:56.553Z,1020.73
2019-02-23T05:19:07.713Z,1020.72
2019-02-23T05:20:18.890Z,1020.71
2019-02-23T05:21:30.032Z,1020.75
2019-02-23T05:22:41.172Z,1020.78
2019-02-23T05:23:52.329Z,1020.78
2019-02-23T05:25:03.619Z,1020.81
2019-02-23T05:26:14.294Z,1020.76
2019-02-23T05:27:25.463Z,1020.74
2019-02-23T05:28:36.628Z,1020.79
2019-02-23T05:29:47.775Z,1020.84
2019-02-23T05:30:58.931Z,1020.83
2019-02-23T05:32:10.078Z,1020.87
2019-02-23T05:33:21.234Z,1020.88
2019-02-23T05:34:32.389Z,1020.82
2019-02-23T05:35:43.621Z,1020.80
2019-02-23T05:36:54.771Z,1020.80
2019-02-23T05:38:06.921Z,1020.84
2019-02-23T05:39:18.095Z,1020.88
2019-02-23T05:40:28.755Z,1020.91
2019-02-23T05:41:39.916Z,1020.86
2019-02-23T05:43:00.405Z,1020.83
2019-02-23T05:44:02.206Z,1020.82
2019-02-23T05:45:13.350Z,1020.79
2019-02-23T05:46:24.506Z,1020.82
2019-02-23T05:47:35.173Z,1020.83
2019-02-23T05:48:46.338Z,1020.82
2019-02-23T05:49:57.618Z,1020.83
2019-02-23T05:51:08.768Z,1020.82
2019-02-23T05:52:19.926Z,1020.78
2019-02-23T05:53:31.066Z,1020.77
2019-02-23T05:54:42.217Z,1020.80
2019-02-23T05:55:53.371Z,1020.83
2019-02-23T05:57:04.046Z,1020.78
2019-02-23T05:58:14.686Z,1020.77
2019-02-23T05:59:25.841Z,1020.83
2019-02-23T06:00:37.982Z,1020.79
2019-02-23T06:01:49.151Z,1020.80
2019-02-23T06:03:00.289Z,1020.78
2019-02-23T06:04:11.452Z,1020.77
2019-02-23T06:05:23.619Z,1020.72
2019-02-23T06:06:34.769Z,1020.70
2019-02-23T06:07:45.919Z,1020.71
2019-02-23T06:08:57.057Z,1020.75
2019-02-23T06:10:08.219Z,1020.75
2019-02-23T06:11:19.370Z,1020.79
2019-02-23T06:12:30.519Z,1020.79
2019-02-23T06:13:41.179Z,1020.78
2019-02-23T06:14:52.341Z,1020.84
2019-02-23T06:16:03.639Z,1020.81
2019-02-23T06:17:14.788Z,1020.80
2019-02-23T06:18:25.932Z,1020.81
2019-02-23T06:19:37.088Z,1020.78
2019-02-23T06:20:48.237Z,1020.75
2019-02-23T06:21:59.375Z,1020.72
2019-02-23T06:23:10.526Z,1020.74
2019-02-23T06:24:21.685Z,1020.73
2019-02-23T06:25:32.540Z,1020.82
2019-02-23T06:26:43.677Z,1020.81
2019-02-23T06:27:54.827Z,1020.83
2019-02-23T06:29:05.978Z,1020.81
2019-02-23T06:30:18.435Z,1020.83
2019-02-23T06:31:28.264Z,1020.89
2019-02-23T06:32:39.414Z,1020.97
2019-02-23T06:33:50.570Z,1021.07
2019-02-23T06:35:01.226Z,1021.01
2019-02-23T06:36:12.374Z,1021.03
2019-02-23T06:37:23.621Z,1020.95
2019-02-23T06:38:34.271Z,1020.99
2019-02-23T06:39:45.407Z,1021.00
2019-02-23T06:40:56.553Z,1021.12
2019-02-23T06:42:07.693Z,1021.14
2019-02-23T06:43:18.833Z,1021.22
2019-02-23T06:44:29.981Z,1021.19
2019-02-23T06:45:42.124Z,1021.26
2019-02-23T06:46:53.262Z,1021.24
2019-02-23T06:48:04.400Z,1021.19
2019-02-23T06:49:15.624Z,1021.19
2019-02-23T06:50:26.771Z,1021.25
2019-02-23T06:51:37.904Z,1021.24
2019-02-23T06:52:48.557Z,1021.24
2019-02-23T06:53:59.211Z,1021.24
2019-02-23T06:55:09.862Z,1021.27
2019-02-23T06:56:20.515Z,1021.33
2019-02-23T06:57:31.680Z,1021.32
2019-02-23T06:58:42.825Z,1021.27
2019-02-23T06:59:54.000Z,1021.32
2019-02-23T07:01:05.167Z,1021.37
2019-02-23T07:02:16.315Z,1021.42
2019-02-23T07:03:27.453Z,1021.42
2019-02-23T07:04:38.594Z,1021.47
2019-02-23T07:05:50.746Z,1021.48
2019-02-23T07:07:01.896Z,1021.52
2019-02-23T07:08:13.044Z,1021.56
2019-02-23T07:09:24.203Z,1021.64
2019-02-23T07:10:35.343Z,1021.61
2019-02-23T07:11:46.507Z,1021.68
2019-02-23T07:12:57.642Z,1021.66
2019-02-23T07:14:08.293Z,1021.73
2019-02-23T07:15:18.950Z,1021.72
2019-02-23T07:16:30.096Z,1021.77
2019-02-23T07:17:41.258Z,1021.79
2019-02-23T07:18:52.397Z,1021.79
2019-02-23T07:20:03.050Z,1021.84
2019-02-23T07:21:14.190Z,1021.87
2019-02-23T07:22:25.333Z,1021.85
2019-02-23T07:23:36.489Z,1021.92
2019-02-23T07:24:48.137Z,1021.91
2019-02-23T07:25:59.297Z,1021.93
2019-02-23T07:27:10.441Z,1021.98
2019-02-23T07:28:21.629Z,1021.94
2019-02-23T07:29:32.780Z,1021.94
2019-02-23T07:30:43.981Z,1021.90
2019-02-23T07:31:55.152Z,1021.89
2019-02-23T07:33:05.810Z,1021.87
2019-02-23T07:34:16.965Z,1021.80
2019-02-23T07:35:28.103Z,1021.81
2019-02-23T07:36:39.249Z,1021.82
2019-02-23T07:37:50.416Z,1021.78
2019-02-23T07:39:01.613Z,1021.78
2019-02-23T07:40:12.758Z,1021.76
2019-02-23T07:41:23.919Z,1021.77
2019-02-23T07:42:35.077Z,1021.80
2019-02-23T07:43:46.228Z,1021.81
2019-02-23T07:44:57.380Z,1021.80
2019-02-23T07:46:08.525Z,1021.83
2019-02-23T07:47:19.681Z,1021.80
2019-02-23T07:48:30.828Z,1021.85
2019-02-23T07:49:42.983Z,1021.84
2019-02-23T07:50:54.150Z,1021.81
2019-02-23T07:52:05.291Z,1021.79
2019-02-23T07:53:16.447Z,1021.75
2019-02-23T07:54:27.619Z,1021.75
2019-02-23T07:55:38.780Z,1021.78
2019-02-23T07:56:49.934Z,1021.74
2019-02-23T07:58:01.126Z,1021.68
2019-02-23T07:59:12.279Z,1021.68
2019-02-23T08:00:22.947Z,1021.60
2019-02-23T08:01:34.102Z,1021.62
2019-02-23T08:02:45.266Z,1021.65
2019-02-23T08:03:56.440Z,1021.66
2019-02-23T08:05:07.099Z,1021.73
2019-02-23T08:06:18.252Z,1021.75
2019-02-23T08:07:28.916Z,1021.74
2019-02-23T08:08:40.091Z,1021.68
2019-02-23T08:09:51.242Z,1021.71
2019-02-23T08:11:02.411Z,1021.67
2019-02-23T08:12:13.672Z,1021.63
2019-02-23T08:13:26.285Z,1021.59
2019-02-23T08:14:37.467Z,1021.56
2019-02-23T08:15:48.627Z,1021.51
2019-02-23T08:16:59.822Z,1021.49
2019-02-23T08:18:10.989Z,1021.44
2019-02-23T08:19:22.144Z,1021.39
2019-02-23T08:20:33.298Z,1021.45
2019-02-23T08:21:44.461Z,1021.42
2019-02-23T08:22:55.122Z,1021.43
2019-02-23T08:24:06.281Z,1021.40
2019-02-23T08:25:17.433Z,1021.41
2019-02-23T08:26:28.600Z,1021.42
2019-02-23T08:27:39.772Z,1021.44
2019-02-23T08:28:50.945Z,1021.44
2019-02-23T08:30:02.110Z,1021.44
2019-02-23T08:31:13.515Z,1021.45
2019-02-23T08:32:23.942Z,1021.39
2019-02-23T08:33:35.120Z,1021.40
2019-02-23T08:34:46.290Z,1021.40
2019-02-23T08:35:57.622Z,1021.42
2019-02-23T08:37:08.792Z,1021.47
2019-02-23T08:38:19.950Z,1021.45
2019-02-23T08:39:31.148Z,1021.48
2019-02-23T08:40:42.317Z,1021.49
2019-02-23T08:41:53.615Z,1021.48
2019-02-23T08:43:04.782Z,1021.47
2019-02-23T08:44:15.959Z,1021.46
2019-02-23T08:45:26.626Z,1021.46
2019-02-23T08:46:37.797Z,1021.44
2019-02-23T08:47:48.963Z,1021.43
2019-02-23T08:49:00.133Z,1021.42
2019-02-23T08:50:11.303Z,1021.39
2019-02-23T08:51:22.531Z,1021.38
2019-02-23T08:52:33.705Z,1021.27
2019-02-23T08:53:46.039Z,1021.27
2019-02-23T08:54:56.553Z,1021.29
2019-02-23T08:56:08.721Z,1021.32
2019-02-23T08:57:19.891Z,1021.39
2019-02-23T08:58:31.059Z,1021.36
2019-02-23T08:59:42.234Z,1021.40
2019-02-23T09:00:52.912Z,1021.39
2019-02-23T09:02:04.079Z,1021.40
2019-02-23T09:03:15.245Z,1021.35
2019-02-23T09:04:27.676Z,1021.34
2019-02-23T09:05:38.844Z,1021.32
2019-02-23T09:06:50.014Z,1021.32
2019-02-23T09:08:00.693Z,1021.32
2019-02-23T09:09:11.876Z,1021.34
2019-02-23T09:10:22.563Z,1021.30
2019-02-23T09:11:34.735Z,1021.27
2019-02-23T09:12:45.911Z,1021.29
2019-02-23T09:13:57.092Z,1021.29
2019-02-23T09:15:08.961Z,1021.30
2019-02-23T09:16:19.653Z,1021.27
2019-02-23T09:17:30.833Z,1021.19
2019-02-23T09:18:42.008Z,1021.17
2019-02-23T09:19:53.179Z,1021.16
2019-02-23T09:21:04.362Z,1021.13
2019-02-23T09:22:15.052Z,1021.10
2019-02-23T09:23:26.243Z,1021.04
2019-02-23T09:24:37.929Z,1021.03
2019-02-23T09:25:49.110Z,1020.98
2019-02-23T09:27:00.303Z,1020.99
2019-02-23T09:28:11.630Z,1020.98
2019-02-23T09:29:22.818Z,1020.95
2019-02-23T09:30:34.006Z,1020.92
2019-02-23T09:31:45.184Z,1020.95
2019-02-23T09:32:55.878Z,1020.95
2019-02-23T09:34:07.065Z,1020.96
2019-02-23T09:35:18.258Z,1020.94
2019-02-23T09:36:28.936Z,1020.94
2019-02-23T09:37:40.134Z,1020.92
2019-02-23T09:38:51.312Z,1020.85
2019-02-23T09:40:02.502Z,1020.76
2019-02-23T09:41:13.695Z,1020.71
2019-02-23T09:42:24.881Z,1020.69
2019-02-23T09:43:36.074Z,1020.67
2019-02-23T09:44:47.258Z,1020.64
2019-02-23T09:45:58.459Z,1020.58
2019-02-23T09:47:09.645Z,1020.57
2019-02-23T09:48:20.829Z,1020.56
2019-02-23T09:49:32.024Z,1020.48
2019-02-23T09:50:43.233Z,1020.43
2019-02-23T09:51:54.437Z,1020.42
2019-02-23T09:53:11.179Z,1020.38
2019-02-23T09:54:16.816Z,1020.35
2019-02-23T09:55:29.027Z,1020.30
2019-02-23T09:56:40.242Z,1020.27
2019-02-23T09:57:51.450Z,1020.25
2019-02-23T09:59:02.642Z,1020.22
2019-02-23T10:00:13.340Z,1020.18
2019-02-23T10:01:24.549Z,1020.11
2019-02-23T10:02:36.251Z,1020.06
2019-02-23T10:03:47.444Z,1020.05
2019-02-23T10:04:58.155Z,1020.00
2019-02-23T10:06:10.373Z,1020.01
2019-02-23T10:07:21.622Z,1019.99
2019-02-23T10:08:32.837Z,1019.97
2019-02-23T10:09:44.048Z,1019.97
2019-02-23T10:10:57.551Z,1019.82
2019-02-23T10:12:05.962Z,1019.77
2019-02-23T10:13:16.689Z,1019.67
2019-02-23T10:14:27.893Z,1019.61
2019-02-23T10:15:38.624Z,1019.56
2019-02-23T10:16:49.849Z,1019.52
2019-02-23T10:18:01.070Z,1019.49
2019-02-23T10:19:11.793Z,1019.46
2019-02-23T10:20:22.511Z,1019.39
2019-02-23T10:21:34.731Z,1019.33
2019-02-23T10:22:45.616Z,1019.34
2019-02-23T10:23:56.831Z,1019.31
2019-02-23T10:25:08.051Z,1019.33
2019-02-23T10:26:19.276Z,1019.33
2019-02-23T10:27:30.995Z,1019.39
2019-02-23T10:28:42.220Z,1019.39
2019-02-23T10:29:53.443Z,1019.40
2019-02-23T10:31:04.667Z,1019.41
2019-02-23T10:32:15.887Z,1019.46
2019-02-23T10:33:27.103Z,1019.47
2019-02-23T10:34:38.325Z,1019.43
2019-02-23T10:35:49.620Z,1019.47
2019-02-23T10:37:00.863Z,1019.46
2019-02-23T10:38:12.082Z,1019.46
2019-02-23T10:39:24.304Z,1019.51
2019-02-23T10:40:35.039Z,1019.50
2019-02-23T10:41:46.274Z,1019.51
2019-02-23T10:42:57.625Z,1019.50
2019-02-23T10:44:08.847Z,1019.56
2019-02-23T10:45:20.085Z,1019.65
2019-02-23T10:46:31.334Z,1019.68
2019-02-23T10:47:42.564Z,1019.62
2019-02-23T10:48:53.797Z,1019.66
2019-02-23T10:50:05.028Z,1019.64
2019-02-23T10:51:15.759Z,1019.59
2019-02-23T10:52:26.500Z,1019.57
2019-02-23T10:53:37.736Z,1019.48
2019-02-23T10:54:48.960Z,1019.44
2019-02-23T10:55:59.708Z,1019.34
2019-02-23T10:57:11.970Z,1019.29
2019-02-23T10:58:23.197Z,1019.26
2019-02-23T10:59:34.448Z,1019.19
2019-02-23T11:00:45.703Z,1019.17
2019-02-23T11:01:56.943Z,1019.09
2019-02-23T11:03:08.183Z,1019.05
2019-02-23T11:04:19.429Z,1019.01
2019-02-23T11:05:30.656Z,1018.95
2019-02-23T11:06:41.931Z,1018.93
2019-02-23T11:07:53.148Z,1018.91
2019-02-23T11:09:04.407Z,1018.88
2019-02-23T11:10:15.652Z,1018.79
2019-02-23T11:11:26.905Z,1018.82
2019-02-23T11:12:38.180Z,1018.81
2019-02-23T11:13:49.419Z,1018.79
2019-02-23T11:15:00.660Z,1018.75
2019-02-23T11:16:11.911Z,1018.71
2019-02-23T11:17:23.164Z,1018.67
2019-02-23T11:18:34.445Z,1018.66
2019-02-23T11:19:45.197Z,1018.64
2019-02-23T11:20:56.443Z,1018.65
2019-02-23T11:22:07.732Z,1018.66
2019-02-23T11:23:18.511Z,1018.59
2019-02-23T11:24:29.764Z,1018.55
2019-02-23T11:25:41.022Z,1018.46
2019-02-23T11:26:52.277Z,1018.42
2019-02-23T11:28:03.902Z,1018.33
2019-02-23T11:29:15.177Z,1018.24
2019-02-23T11:30:26.437Z,1018.26
2019-02-23T11:31:37.695Z,1018.20
2019-02-23T11:32:48.948Z,1018.17
2019-02-23T11:34:00.227Z,1018.18
2019-02-23T11:35:11.616Z,1018.17
2019-02-23T11:36:22.883Z,1018.07
2019-02-23T11:37:34.155Z,1017.77
2019-02-23T11:38:45.446Z,1017.32
2019-02-23T11:39:56.727Z,1016.91
2019-02-23T11:41:08.000Z,1016.51
2019-02-23T11:42:18.779Z,1016.17
2019-02-23T11:43:30.069Z,1015.84
2019-02-23T11:44:40.874Z,1015.95
2019-02-23T11:45:52.181Z,1015.63
2019-02-23T11:47:03.614Z,1015.44
2019-02-23T11:48:14.962Z,1015.14
2019-02-23T11:49:25.832Z,1014.92
2019-02-23T11:50:37.198Z,1014.65
2019-02-23T11:51:48.592Z,1014.57
2019-02-23T11:53:00.000Z,1014.44
2019-02-23T11:54:11.411Z,1014.36
2019-02-23T11:55:22.844Z,1014.25
2019-02-23T11:56:33.788Z,1014.05
2019-02-23T11:57:44.756Z,1013.77
2019-02-23T11:58:56.228Z,1013.54
2019-02-23T12:00:07.719Z,1013.44
2019-02-23T12:01:19.216Z,1013.41
2019-02-23T12:02:30.731Z,1013.26
2019-02-23T12:03:42.257Z,1013.14
2019-02-23T12:04:53.791Z,1013.30
2019-02-23T12:06:05.336Z,1013.27
2019-02-23T12:07:16.934Z,1013.29
2019-02-23T12:08:28.482Z,1013.26
2019-02-23T12:09:40.062Z,1013.15
2019-02-23T12:10:51.630Z,1012.94
2019-02-23T12:12:03.199Z,1013.02
2019-02-23T12:13:14.786Z,1013.19
2019-02-23T12:14:26.363Z,1013.19
2019-02-23T12:15:37.941Z,1013.25
2019-02-23T12:16:49.616Z,1013.20
2019-02-23T12:18:01.211Z,1013.19
2019-02-23T12:19:12.797Z,1013.23
2019-02-23T12:20:24.396Z,1013.26
2019-02-23T12:21:36.005Z,1013.08
2019-02-23T12:22:47.626Z,1013.03
2019-02-23T12:24:05.948Z,1012.86
2019-02-23T12:25:13.064Z,1012.93
2019-02-23T12:26:22.503Z,1012.87
2019-02-23T12:27:34.138Z,1012.83
2019-02-23T12:28:46.786Z,1012.72
2019-02-23T12:29:58.438Z,1012.69
2019-02-23T12:31:10.123Z,1012.76
2019-02-23T12:32:21.776Z,1012.74
2019-02-23T12:33:33.432Z,1012.74
2019-02-23T12:34:45.108Z,1012.70
2019-02-23T12:35:56.770Z,1012.71
2019-02-23T12:37:08.419Z,1012.95
2019-02-23T12:38:20.097Z,1013.11
2019-02-23T12:39:31.758Z,1013.15
2019-02-23T12:40:44.421Z,1013.36
2019-02-23T12:41:56.078Z,1013.45
2019-02-23T12:43:07.738Z,1013.47
2019-02-23T12:44:19.419Z,1013.40
2019-02-23T12:45:31.101Z,1013.25
2019-02-23T12:46:42.784Z,1013.12
2019-02-23T12:47:54.463Z,1012.98
2019-02-23T12:49:06.156Z,1012.86
2019-02-23T12:50:17.869Z,1012.72
2019-02-23T12:51:30.567Z,1012.60
2019-02-23T12:52:42.283Z,1013.16
2019-02-23T12:53:53.992Z,1013.06
2019-02-23T12:55:05.721Z,1013.08
2019-02-23T12:56:17.456Z,1013.14
2019-02-23T12:57:29.160Z,1013.10
2019-02-23T12:58:40.880Z,1013.13
2019-02-23T12:59:52.611Z,1013.20
2019-02-23T13:01:04.310Z,1013.33
2019-02-23T13:02:16.018Z,1013.43
2019-02-23T13:03:27.726Z,1013.47
2019-02-23T13:04:39.417Z,1013.55
2019-02-23T13:05:51.110Z,1013.58
2019-02-23T13:07:02.796Z,1013.63
2019-02-23T13:08:14.488Z,1013.74
2019-02-23T13:09:26.209Z,1013.68
2019-02-23T13:10:37.907Z,1013.69
2019-02-23T13:11:49.613Z,1013.75
2019-02-23T13:13:01.299Z,1013.85
2019-02-23T13:14:12.976Z,1013.95
2019-02-23T13:15:24.657Z,1014.00
2019-02-23T13:16:36.338Z,1014.05
2019-02-23T13:17:48.012Z,1014.10
2019-02-23T13:18:59.686Z,1014.15
2019-02-23T13:20:11.362Z,1014.18
2019-02-23T13:21:23.043Z,1014.17
2019-02-23T13:22:34.717Z,1014.28
2019-02-23T13:23:46.389Z,1014.50
2019-02-23T13:24:58.071Z,1014.69
2019-02-23T13:26:09.768Z,1014.89
2019-02-23T13:27:22.418Z,1014.97
2019-02-23T13:28:34.074Z,1015.07
2019-02-23T13:29:45.714Z,1015.12
2019-02-23T13:30:57.337Z,1015.32
2019-02-23T13:32:08.977Z,1015.48
2019-02-23T13:33:20.590Z,1015.60
2019-02-23T13:34:32.205Z,1015.72
2019-02-23T13:35:43.820Z,1015.77
2019-02-23T13:36:55.414Z,1015.84
2019-02-23T13:38:06.993Z,1015.81
2019-02-23T13:39:18.590Z,1015.80
2019-02-23T13:40:30.171Z,1015.86
2019-02-23T13:41:41.748Z,1015.84
2019-02-23T13:42:53.318Z,1015.77
2019-02-23T13:44:04.384Z,1015.75
2019-02-23T13:45:15.947Z,1015.72
2019-02-23T13:46:27.623Z,1015.55
2019-02-23T13:47:39.187Z,1015.38
2019-02-23T13:48:50.736Z,1015.15
2019-02-23T13:50:02.280Z,1015.02
2019-02-23T13:51:13.819Z,1014.84
2019-02-23T13:52:24.867Z,1014.79
2019-02-23T13:53:36.406Z,1014.71
2019-02-23T13:54:47.951Z,1014.68
2019-02-23T13:55:59.621Z,1014.60
2019-02-23T13:57:11.171Z,1014.66
2019-02-23T13:58:22.716Z,1014.67
2019-02-23T13:59:34.268Z,1014.71
2019-02-23T14:00:45.826Z,1014.63
2019-02-23T14:01:57.369Z,1014.62
2019-02-23T14:03:08.961Z,1014.70
2019-02-23T14:04:20.514Z,1014.67
2019-02-23T14:05:31.654Z,1014.54
2019-02-23T14:06:43.228Z,1014.38
2019-02-23T14:07:54.828Z,1014.26
2019-02-23T14:09:06.395Z,1014.23
2019-02-23T14:10:17.975Z,1014.21
2019-02-23T14:11:29.564Z,1014.27
2019-02-23T14:12:41.141Z,1014.22
2019-02-23T14:13:52.718Z,1014.10
2019-02-23T14:15:04.286Z,1013.99
2019-02-23T14:16:15.858Z,1013.98
2019-02-23T14:17:27.614Z,1013.85
2019-02-23T14:18:39.204Z,1013.86
2019-02-23T14:19:50.778Z,1013.78
2019-02-23T14:21:02.361Z,1013.75